Time;durP1;ratioP1;P1;durP2;ratioP2;P2;SDS_P1;SDS_P2;PMS_P1;PMS_P2;Temp;Humidity;BMP_temperature;BMP_pressure;BME280_temperature;BME280_humidity;BME280_pressure;Samples;Min_cycle;Max_cycle;Signal;HPM_P1;HPM_P2
2021/07/25 00:02:13;;;;;;;14.30;8.80;;;;;;;22.41;55.40;99815.88;4915163;28;97382;-86
2021/07/25 00:04:39;;;;;;;12.60;8.48;;;;;;;22.34;55.46;99819.13;4914773;28;96614;-85
2021/07/25 00:07:04;;;;;;;13.90;8.77;;;;;;;22.40;55.43;99811.50;4915351;28;96968;-86
2021/07/25 00:09:30;;;;;;;14.07;8.77;;;;;;;22.30;55.70;99808.84;4915202;28;98463;-86
2021/07/25 00:11:55;;;;;;;20.20;10.35;;;;;;;22.40;55.37;99816.84;4898603;28;101426;-86
2021/07/25 00:14:21;;;;;;;10.38;8.35;;;;;;;22.28;55.74;99816.16;4915018;28;96743;-86
2021/07/25 00:16:46;;;;;;;12.27;9.27;;;;;;;22.29;55.61;99818.69;4914068;28;96758;-87
2021/07/25 00:19:12;;;;;;;13.68;8.82;;;;;;;22.20;55.84;99814.19;4914588;28;98133;-86
2021/07/25 00:21:39;;;;;;;16.85;9.73;;;;;;;22.24;55.75;99807.56;4930639;28;97915;-87
2021/07/25 00:24:04;;;;;;;13.88;9.63;;;;;;;22.27;55.92;99809.97;4898710;28;96786;-86
2021/07/25 00:26:37;;;;;;;15.32;9.93;;;;;;;22.24;55.90;99799.53;4898770;28;96756;-86
2021/07/25 00:29:04;;;;;;;16.70;9.70;;;;;;;22.19;55.95;99791.09;4899548;28;101367;-87
2021/07/25 00:31:29;;;;;;;13.38;8.88;;;;;;;22.21;56.01;99791.81;4914571;28;99323;-86
2021/07/25 00:33:56;;;;;;;17.92;9.70;;;;;;;22.12;56.19;99772.06;4898091;28;96511;-86
2021/07/25 00:36:21;;;;;;;15.27;9.02;;;;;;;22.10;56.31;99775.88;4899146;28;96586;-86
2021/07/25 00:38:47;;;;;;;13.68;9.00;;;;;;;22.03;56.64;99775.59;4914269;28;101607;-87
2021/07/25 00:41:15;;;;;;;10.70;9.27;;;;;;;22.09;56.43;99769.69;4930537;28;98445;-86
2021/07/25 00:43:43;;;;;;;12.50;8.73;;;;;;;22.07;56.60;99765.47;4901095;28;97426;-86
2021/07/25 00:46:17;;;;;;;15.35;9.25;;;;;;;22.09;56.62;99764.34;4917903;28;96850;-86
2021/07/25 00:48:44;;;;;;;12.02;9.15;;;;;;;22.08;56.40;99751.97;4917419;28;101566;-87
2021/07/25 00:51:10;;;;;;;13.00;9.60;;;;;;;22.01;56.75;99761.50;4934054;28;98369;-86
2021/07/25 00:53:40;;;;;;;11.77;9.93;;;;;;;22.04;56.80;99752.38;4901434;28;96582;-86
2021/07/25 00:56:10;;;;;;;10.65;9.02;;;;;;;21.91;57.11;99750.00;4901961;28;96799;-86
2021/07/25 00:58:37;;;;;;;16.05;9.35;;;;;;;22.02;56.77;99757.88;4917581;28;98140;-87
2021/07/25 01:01:04;;;;;;;13.57;9.38;;;;;;;21.99;56.77;99743.94;4934531;28;98314;-86
2021/07/25 01:04:02;;;;;;;11.57;9.52;;;;;;;21.95;57.04;99740.69;4933993;28;97540;-87
2021/07/25 01:06:32;;;;;;;15.45;9.85;;;;;;;21.84;57.28;99744.34;4935084;28;96992;-86
2021/07/25 01:09:01;;;;;;;13.63;10.27;;;;;;;21.75;57.52;99742.50;4932502;28;102044;-87
2021/07/25 01:11:32;;;;;;;14.85;10.10;;;;;;;21.82;57.46;99740.13;4917569;28;98427;-86
2021/07/25 01:14:00;;;;;;;11.13;8.95;;;;;;;21.69;57.77;99727.03;4917307;28;96743;-87
2021/07/25 01:16:26;;;;;;;17.48;9.75;;;;;;;21.56;58.44;99724.63;4917520;28;96847;-86
2021/07/25 01:18:51;;;;;;;15.43;10.10;;;;;;;21.61;58.16;99727.72;4917071;28;101185;-86
2021/07/25 01:21:18;;;;;;;12.20;9.25;;;;;;;21.59;58.22;99716.34;4917782;28;98478;-87
2021/07/25 01:23:45;;;;;;;16.70;10.00;;;;;;;21.62;57.90;99717.88;4901164;28;96593;-87
2021/07/25 01:26:12;;;;;;;14.25;9.40;;;;;;;21.62;57.90;99717.88;4917683;28;96925;-87
2021/07/25 01:28:41;;;;;;;13.00;9.98;;;;;;;21.69;57.88;99713.66;4917033;28;98220;-87
2021/07/25 01:31:12;;;;;;;12.23;9.25;;;;;;;21.57;58.29;99712.94;4917347;28;101721;-86
2021/07/25 01:33:40;;;;;;;15.95;10.25;;;;;;;21.49;58.69;99710.09;4932789;28;96705;-87
2021/07/25 01:36:06;;;;;;;22.45;10.57;;;;;;;21.40;58.45;99700.25;4917450;28;97273;-87
2021/07/25 01:38:32;;;;;;;12.82;10.38;;;;;;;21.44;58.56;99691.84;4901289;28;101103;-87
2021/07/25 01:41:05;;;;;;;12.07;9.52;;;;;;;21.41;58.85;99692.13;4900825;28;101360;-86
2021/07/25 01:43:32;;;;;;;17.48;10.05;;;;;;;21.37;59.00;99696.03;4901024;28;96807;-87
2021/07/25 01:45:58;;;;;;;11.60;9.70;;;;;;;21.37;58.77;99688.03;4933115;28;97929;-86
2021/07/25 01:48:24;;;;;;;13.20;9.70;;;;;;;21.35;59.06;99695.31;4901114;28;101144;-87
2021/07/25 01:50:49;;;;;;;11.30;10.10;;;;;;;21.21;59.55;99691.19;4916754;28;101401;-86
2021/07/25 01:53:17;;;;;;;16.90;10.25;;;;;;;21.36;58.98;99701.50;4916514;28;96617;-86
2021/07/25 01:55:43;;;;;;;12.25;9.38;;;;;;;21.37;59.05;99703.19;4916984;28;96844;-86
2021/07/25 01:58:09;;;;;;;11.73;10.10;;;;;;;21.33;59.10;99704.44;4899865;28;101174;-86
2021/07/25 02:00:35;;;;;;;13.27;10.07;;;;;;;21.19;59.52;99706.47;4917169;28;97941;-87
2021/07/25 02:03:00;;;;;;;21.20;9.90;;;;;;;21.17;59.74;99712.94;4900627;28;96680;-86
2021/07/25 02:05:26;;;;;;;14.75;10.02;;;;;;;21.30;59.16;99710.03;4918485;28;96849;-86
2021/07/25 02:07:51;;;;;;;12.27;9.68;;;;;;;21.25;59.44;99719.28;4932944;28;100383;-87
2021/07/25 02:10:17;;;;;;;13.40;10.48;;;;;;;21.13;59.86;99725.69;4917701;28;97945;-87
2021/07/25 02:12:43;;;;;;;15.65;10.13;;;;;;;21.07;60.04;99726.25;4901487;28;96956;-86
2021/07/25 02:15:09;;;;;;;15.85;10.25;;;;;;;21.01;60.07;99724.94;4901871;28;96904;-86
2021/07/25 02:17:35;;;;;;;19.55;11.73;;;;;;;21.05;60.31;99727.34;4916362;28;101858;-87
2021/07/25 02:20:00;;;;;;;13.30;9.90;;;;;;;20.99;60.24;99726.91;4932423;28;98240;-86
2021/07/25 02:22:26;;;;;;;14.68;10.50;;;;;;;20.81;60.87;99725.81;4916121;28;97117;-86
2021/07/25 02:24:51;;;;;;;17.20;11.27;;;;;;;20.88;60.79;99734.97;4932609;28;96783;-86
2021/07/25 02:27:16;;;;;;;16.05;10.15;;;;;;;20.87;60.71;99727.97;4916593;28;98542;-86
2021/07/25 02:29:42;;;;;;;14.60;10.50;;;;;;;20.98;60.56;99732.38;4899931;28;101442;-87
2021/07/25 02:32:08;;;;;;;14.73;10.98;;;;;;;20.89;60.55;99727.84;4900413;28;96518;-87
2021/07/25 02:34:33;;;;;;;13.32;9.73;;;;;;;20.78;60.93;99729.59;4900494;28;96946;-86
2021/07/25 02:36:59;;;;;;;12.88;10.05;;;;;;;20.83;60.96;99725.69;4931928;28;100247;-87
2021/07/25 02:39:26;;;;;;;13.93;10.77;;;;;;;20.84;60.92;99717.56;4916572;28;101523;-86
2021/07/25 02:41:51;;;;;;;17.63;10.55;;;;;;;20.81;60.87;99715.16;4909151;28;96812;-87
2021/07/25 02:44:17;;;;;;;14.43;11.32;;;;;;;20.89;60.76;99711.84;4881332;28;97596;-86
2021/07/25 02:46:43;;;;;;;11.50;10.38;;;;;;;20.72;61.15;99711.47;4896053;28;98332;-88
2021/07/25 02:49:08;;;;;;;13.43;10.75;;;;;;;20.71;61.36;99707.13;4912850;28;101440;-86
2021/07/25 02:51:34;;;;;;;13.40;10.93;;;;;;;20.76;61.45;99704.88;4897247;28;96565;-87
2021/07/25 02:53:59;;;;;;;13.18;10.85;;;;;;;20.72;61.31;99702.63;4896880;28;96674;-86
2021/07/25 02:56:25;;;;;;;15.18;10.75;;;;;;;20.77;61.24;99697.75;4913099;28;98244;-87
2021/07/25 02:58:50;;;;;;;26.02;12.23;;;;;;;20.76;61.23;99704.03;4880332;28;101036;-86
2021/07/25 03:01:16;;;;;;;14.93;11.60;;;;;;;20.67;61.44;99707.50;4881057;28;97152;-86
2021/07/25 03:03:41;;;;;;;13.82;10.63;;;;;;;20.71;61.49;99699.13;4914617;28;96763;-86
2021/07/25 03:06:07;;;;;;;14.00;10.73;;;;;;;20.74;61.47;99712.19;4880053;28;101492;-87
2021/07/25 03:08:33;;;;;;;15.40;10.68;;;;;;;20.70;61.39;99704.56;4896787;28;101102;-87
2021/07/25 03:10:59;;;;;;;14.45;11.32;;;;;;;20.62;61.71;99697.22;4911791;28;98003;-86
2021/07/25 03:13:26;;;;;;;14.60;10.55;;;;;;;20.77;61.39;99705.75;4880947;28;98018;-87
2021/07/25 03:15:52;;;;;;;18.67;11.63;;;;;;;20.68;61.48;99696.72;4896103;28;101233;-87
2021/07/25 03:18:17;;;;;;;18.58;11.73;;;;;;;20.65;61.71;99699.63;4880688;28;100266;-87
2021/07/25 03:20:43;;;;;;;16.95;11.68;;;;;;;20.68;61.82;99702.06;4895975;28;97284;-87
2021/07/25 03:23:08;;;;;;;13.13;10.35;;;;;;;20.62;61.91;99699.03;4911507;28;96840;-86
2021/07/25 03:25:34;;;;;;;14.27;11.82;;;;;;;20.76;61.45;99704.03;4880355;28;101757;-87
2021/07/25 03:27:59;;;;;;;13.77;10.85;;;;;;;20.69;61.81;99708.22;4880344;28;100114;-87
2021/07/25 03:30:25;;;;;;;13.13;11.25;;;;;;;20.67;61.72;99707.50;4912745;28;96642;-86
2021/07/25 03:32:50;;;;;;;17.45;11.13;;;;;;;20.68;61.65;99717.19;4896013;28;96658;-87
2021/07/25 03:35:16;;;;;;;15.30;10.85;;;;;;;20.69;61.62;99714.41;4879988;28;101058;-87
2021/07/25 03:37:44;;;;;;;13.10;11.70;;;;;;;20.57;62.18;99723.44;4911964;28;98348;-86
2021/07/25 03:40:10;;;;;;;16.98;10.95;;;;;;;20.57;62.21;99734.94;4912227;28;96762;-86
2021/07/25 03:42:36;;;;;;;15.88;11.27;;;;;;;20.61;62.05;99732.88;4907449;28;96681;-86
2021/07/25 03:45:02;;;;;;;16.67;10.60;;;;;;;20.58;62.09;99725.97;4931162;28;98598;-87
2021/07/25 03:47:28;;;;;;;12.82;11.18;;;;;;;20.67;61.78;99721.66;4915630;28;100081;-87
2021/07/25 03:49:54;;;;;;;17.15;12.00;;;;;;;20.75;61.74;99719.19;4930951;28;96975;-87
2021/07/25 03:52:19;;;;;;;18.10;12.18;;;;;;;20.79;61.59;99719.78;4915763;28;96917;-86
2021/07/25 03:54:46;;;;;;;14.55;11.52;;;;;;;20.72;62.05;99719.47;4915484;28;98624;-86
2021/07/25 03:57:12;;;;;;;12.05;10.85;;;;;;;20.81;61.43;99733.84;4930767;28;101231;-86
2021/07/25 03:59:37;;;;;;;14.00;11.63;;;;;;;20.87;61.23;99725.28;4931047;28;97222;-86
2021/07/25 04:02:04;;;;;;;15.18;11.45;;;;;;;20.78;61.92;99729.59;4931028;28;97885;-86
2021/07/25 04:04:30;;;;;;;13.55;10.88;;;;;;;20.90;61.53;99733.03;4915162;28;101567;-86
2021/07/25 04:06:55;;;;;;;11.60;10.40;;;;;;;20.94;61.37;99731.81;4930606;28;101196;-87
2021/07/25 04:09:21;;;;;;;13.27;11.48;;;;;;;21.12;61.19;99725.81;4931611;28;96545;-86
2021/07/25 04:11:51;;;;;;;15.73;11.18;;;;;;;21.13;60.98;99728.38;4915093;28;96953;-86
2021/07/25 04:14:17;;;;;;;13.98;11.77;;;;;;;21.13;61.02;99723.03;4931001;28;101827;-87
2021/07/25 04:16:42;;;;;;;18.42;11.15;;;;;;;21.10;61.64;99727.81;4932213;28;98115;-86
2021/07/25 04:19:08;;;;;;;17.50;12.07;;;;;;;21.10;61.31;99725.97;4934181;28;96736;-87
2021/07/25 04:21:33;;;;;;;13.13;11.23;;;;;;;21.29;60.97;99735.84;4918608;28;96862;-86
2021/07/25 04:23:59;;;;;;;15.55;11.90;;;;;;;21.43;60.39;99737.34;4933364;28;101233;-86
2021/07/25 04:26:24;;;;;;;18.55;11.65;;;;;;;21.47;60.39;99738.78;4933904;28;101767;-86
2021/07/25 04:28:50;;;;;;;21.90;12.32;;;;;;;21.59;60.08;99728.84;4934532;28;96587;-86
2021/07/25 04:31:16;;;;;;;16.25;12.65;;;;;;;21.53;60.29;99724.06;4934413;28;96837;-86
2021/07/25 04:33:43;;;;;;;16.35;12.07;;;;;;;21.44;60.69;99723.88;4918480;28;98205;-87
2021/07/25 04:36:14;;;;;;;16.00;12.38;;;;;;;21.41;60.77;99724.16;4901970;28;100325;-87
2021/07/25 04:38:40;;;;;;;17.23;11.75;;;;;;;21.46;60.57;99729.06;4919059;28;97143;-86
2021/07/25 04:41:09;;;;;;;18.70;11.60;;;;;;;21.50;60.72;99726.97;4934519;28;96756;-87
2021/07/25 04:43:35;;;;;;;16.00;12.15;;;;;;;21.35;61.29;99726.47;4934294;28;98407;-87
2021/07/25 04:46:04;;;;;;;15.63;11.98;;;;;;;21.54;60.52;99725.72;4917335;28;101336;-87
2021/07/25 04:49:02;;;;;;;18.02;12.95;;;;;;;21.51;60.82;99723.34;4934007;28;96509;-87
2021/07/25 04:51:29;;;;;;;14.98;13.35;;;;;;;21.22;61.64;99727.56;4934359;28;97321;-87
2021/07/25 04:54:06;;;;;;;16.45;12.48;;;;;;;21.57;60.78;99723.63;4933806;28;97987;-87
2021/07/25 04:56:39;;;;;;;20.75;12.85;;;;;;;21.55;60.68;99730.06;4934503;28;98388;-87
2021/07/25 04:59:13;;;;;;;16.58;12.80;;;;;;;21.40;61.69;99737.63;4917568;28;96929;-87
2021/07/25 05:01:42;;;;;;;16.45;13.60;;;;;;;21.48;61.23;99735.13;4934621;28;96711;-87
2021/07/25 05:04:08;;;;;;;16.80;12.93;;;;;;;21.43;61.16;99732.84;4901173;28;101008;-87
2021/07/25 05:06:34;;;;;;;16.40;12.68;;;;;;;21.38;61.83;99747.59;4934522;28;97094;-87
2021/07/25 05:09:00;;;;;;;15.93;13.82;;;;;;;21.40;61.71;99748.31;4917399;28;96635;-87
2021/07/25 05:11:30;;;;;;;15.65;13.60;;;;;;;21.60;60.95;99747.38;4917664;28;97068;-87
2021/07/25 05:13:56;;;;;;;22.25;17.60;;;;;;;21.61;60.98;99749.09;4933292;28;97503;-88
2021/07/25 05:16:32;;;;;;;23.83;18.73;;;;;;;21.71;60.53;99746.44;4933818;28;98383;-87
2021/07/25 05:19:10;;;;;;;24.88;19.52;;;;;;;21.67;60.98;99747.66;4933384;28;96518;-87
2021/07/25 05:21:41;;;;;;;25.70;20.88;;;;;;;21.58;61.17;99744.00;4934080;28;96532;-86
2021/07/25 05:24:08;;;;;;;26.75;18.73;;;;;;;21.62;61.02;99748.09;4933437;28;100263;-87
2021/07/25 05:26:35;;;;;;;23.83;19.30;;;;;;;;;;4917680;28;101541;-87
2021/07/25 05:29:01;;;;;;;34.05;23.25;;;;;;;21.69;60.80;99751.06;4933473;28;96540;-87
2021/07/25 05:31:31;;;;;;;29.40;24.27;;;;;;;21.91;60.17;99753.50;4935584;28;96514;-87
2021/07/25 05:33:57;;;;;;;36.95;23.05;;;;;;;21.91;60.29;99758.00;4933066;28;101513;-87
2021/07/25 05:36:23;;;;;;;24.48;20.52;;;;;;;21.99;60.06;99767.97;4933450;28;101278;-87
2021/07/25 05:38:48;;;;;;;27.10;17.30;;;;;;;21.89;60.54;99763.47;4933375;28;96840;-86
2021/07/25 05:41:14;;;;;;;19.73;16.77;;;;;;;22.09;59.99;99771.53;4932645;28;96800;-87
2021/07/25 05:43:39;;;;;;;24.17;16.52;;;;;;;22.13;59.60;99771.09;4933752;28;98708;-87
2021/07/25 05:46:05;;;;;;;21.90;15.75;;;;;;;22.24;59.37;99774.66;4932879;28;98468;-87
2021/07/25 05:48:30;;;;;;;21.25;16.30;;;;;;;22.34;59.17;99768.34;4901286;28;96717;-86
2021/07/25 05:50:57;;;;;;;20.95;15.88;;;;;;;22.60;58.42;99773.06;4933518;28;96939;-87
2021/07/25 05:53:22;;;;;;;16.60;14.07;;;;;;;23.01;57.16;99771.91;4932917;28;101960;-86
2021/07/25 05:55:48;;;;;;;19.90;14.20;;;;;;;23.33;56.37;99769.81;4933603;28;98177;-85
2021/07/25 05:58:13;;;;;;;18.77;15.43;;;;;;;23.57;55.30;99778.19;4917106;28;96771;-86
2021/07/25 06:00:39;;;;;;;19.42;14.65;;;;;;;23.38;55.76;99776.41;4917096;28;96835;-87
2021/07/25 06:03:04;;;;;;;20.73;15.63;;;;;;;23.20;56.22;99779.03;4931881;28;101791;-86
2021/07/25 06:05:34;;;;;;;21.90;13.75;;;;;;;23.48;55.84;99777.22;4916562;28;101438;-86
2021/07/25 06:08:00;;;;;;;24.35;14.00;;;;;;;23.66;55.52;99779.97;4932060;28;96842;-87
2021/07/25 06:10:28;;;;;;;17.77;13.00;;;;;;;23.90;55.01;99771.38;4933277;28;96818;-86
2021/07/25 06:12:56;;;;;;;16.52;13.07;;;;;;;24.28;54.25;99771.25;4933116;28;98346;-87
2021/07/25 06:15:23;;;;;;;19.20;13.30;;;;;;;24.48;53.20;99767.44;4932411;28;101041;-86
2021/07/25 06:17:49;;;;;;;17.85;12.63;;;;;;;24.70;52.73;99773.31;4933090;28;96701;-86
2021/07/25 06:20:14;;;;;;;17.70;13.50;;;;;;;24.54;53.03;99774.84;4932553;28;96925;-86
2021/07/25 06:22:45;;;;;;;15.52;13.25;;;;;;;24.42;53.19;99769.88;4932733;28;98335;-86
2021/07/25 06:25:12;;;;;;;19.23;12.43;;;;;;;24.36;53.90;99777.53;4932149;28;101689;-87
2021/07/25 06:27:38;;;;;;;16.50;13.73;;;;;;;24.40;53.07;99786.09;4932234;28;96685;-85
2021/07/25 06:30:05;;;;;;;18.60;12.57;;;;;;;24.54;53.47;99780.22;4932059;28;97535;-85
2021/07/25 06:32:31;;;;;;;16.35;13.65;;;;;;;24.62;53.14;99788.34;4916390;28;101388;-85
2021/07/25 06:34:57;;;;;;;15.57;12.73;;;;;;;24.63;53.18;99789.19;4932577;28;97662;-85
2021/07/25 06:37:22;;;;;;;15.73;13.13;;;;;;;24.79;53.07;99793.84;4932147;28;96557;-85
2021/07/25 06:39:48;;;;;;;17.08;13.07;;;;;;;24.90;52.40;99795.41;4916153;28;96541;-85
2021/07/25 06:42:13;;;;;;;19.20;13.30;;;;;;;24.71;53.05;99791.94;4931465;28;99985;-85
2021/07/25 06:44:39;;;;;;;15.52;13.02;;;;;;;24.72;53.03;99790.09;4932751;28;97305;-85
2021/07/25 06:47:04;;;;;;;15.48;13.15;;;;;;;24.61;53.68;99799.25;4931988;28;96695;-86
2021/07/25 06:49:30;;;;;;;18.05;13.05;;;;;;;24.49;54.08;99795.09;4916532;28;96793;-85
2021/07/25 06:51:55;;;;;;;16.45;12.52;;;;;;;24.47;53.87;99797.94;4932076;28;97527;-85
2021/07/25 06:54:21;;;;;;;18.02;13.38;;;;;;;24.37;54.28;99789.94;4915514;28;101659;-85
2021/07/25 06:56:46;;;;;;;15.73;11.77;;;;;;;24.44;54.08;99786.69;4931611;28;96758;-85
2021/07/25 06:59:12;;;;;;;16.52;13.20;;;;;;;24.70;53.40;99792.94;4931966;28;96852;-85
2021/07/25 07:01:37;;;;;;;16.58;11.77;;;;;;;24.65;53.51;99784.50;4916892;28;100444;-85
2021/07/25 07:04:03;;;;;;;16.45;12.85;;;;;;;24.55;53.47;99781.94;4917216;28;101352;-86
2021/07/25 07:06:28;;;;;;;16.40;11.95;;;;;;;24.61;53.92;99783.16;4932388;28;97174;-85
2021/07/25 07:08:54;;;;;;;18.15;12.65;;;;;;;24.72;53.28;99779.34;4932420;28;96820;-85
2021/07/25 07:11:26;;;;;;;13.48;11.50;;;;;;;24.73;52.46;99779.22;4931283;28;101359;-85
2021/07/25 07:13:53;;;;;;;13.85;11.88;;;;;;;24.72;53.32;99780.19;4932348;28;98479;-85
2021/07/25 07:16:18;;;;;;;14.73;12.15;;;;;;;24.65;53.36;99791.72;4915123;28;97810;-85
2021/07/25 07:18:43;;;;;;;13.73;10.95;;;;;;;24.84;52.94;99796.88;4899650;28;97666;-85
2021/07/25 07:21:09;;;;;;;18.23;11.80;;;;;;;24.70;53.15;99790.25;4931280;28;101515;-86
2021/07/25 07:23:35;;;;;;;14.45;10.95;;;;;;;24.75;53.29;99787.94;4931558;28;101445;-85
2021/07/25 07:26:00;;;;;;;16.63;11.13;;;;;;;24.65;53.49;99787.19;4931609;28;96694;-85
2021/07/25 07:28:26;;;;;;;12.30;10.88;;;;;;;24.71;53.24;99793.78;4915095;28;96948;-85
2021/07/25 07:30:51;;;;;;;11.60;10.40;;;;;;;24.59;53.89;99791.34;4915174;28;101502;-86
2021/07/25 07:33:19;;;;;;;15.20;10.82;;;;;;;24.52;54.22;99790.28;4931588;28;97988;-86
2021/07/25 07:35:45;;;;;;;16.23;10.77;;;;;;;24.51;54.08;99796.63;4931663;28;96817;-85
2021/07/25 07:38:11;;;;;;;14.68;11.35;;;;;;;24.53;54.07;99801.84;4931091;28;96870;-86
2021/07/25 07:40:38;;;;;;;14.55;11.50;;;;;;;24.56;53.97;99794.34;4914879;28;100896;-85
2021/07/25 07:43:05;;;;;;;16.05;11.35;;;;;;;24.68;53.29;99805.66;4931342;28;97962;-85
2021/07/25 07:45:32;;;;;;;13.48;10.77;;;;;;;24.57;53.67;99808.59;4915471;28;96693;-86
2021/07/25 07:47:57;;;;;;;13.48;10.73;;;;;;;24.49;53.66;99806.66;4931165;28;96669;-85
2021/07/25 07:50:23;;;;;;;14.73;10.45;;;;;;;24.44;54.01;99802.78;4930772;28;101009;-85
2021/07/25 07:52:48;;;;;;;13.05;11.75;;;;;;;24.46;53.48;99800.78;4914101;28;101642;-85
2021/07/25 07:55:15;;;;;;;13.40;10.43;;;;;;;24.67;52.77;99795.06;4914272;28;96672;-86
2021/07/25 07:57:41;;;;;;;14.43;11.18;;;;;;;24.76;52.81;99800.38;4932285;28;96742;-85
2021/07/25 08:00:07;;;;;;;13.70;10.82;;;;;;;24.69;53.07;99807.34;4914874;28;99567;-85
2021/07/25 08:02:39;;;;;;;11.73;10.02;;;;;;;24.68;53.05;99802.16;4928935;28;98096;-85
2021/07/25 08:05:05;;;;;;;17.88;11.15;;;;;;;24.62;53.15;99812.50;4931025;28;96625;-85
2021/07/25 08:07:31;;;;;;;12.32;10.40;;;;;;;24.66;53.21;99813.00;4930954;28;96820;-85
2021/07/25 08:09:56;;;;;;;17.40;11.15;;;;;;;24.67;52.96;99813.84;4931319;28;98528;-84
2021/07/25 08:12:22;;;;;;;13.20;10.60;;;;;;;24.63;52.89;99816.84;4914328;28;101567;-85
2021/07/25 08:14:47;;;;;;;11.77;10.32;;;;;;;24.62;52.74;99811.66;4931225;28;97068;-85
2021/07/25 08:17:13;;;;;;;11.90;9.25;;;;;;;24.71;52.54;99804.50;4930777;28;96843;-85
2021/07/25 08:19:38;;;;;;;16.65;9.50;;;;;;;24.74;52.55;99809.56;4915289;28;98144;-85
2021/07/25 08:22:07;;;;;;;11.48;8.93;;;;;;;24.64;53.08;99815.03;4931926;28;98349;-85
2021/07/25 08:24:38;;;;;;;14.13;9.75;;;;;;;24.70;52.63;99810.88;4914902;28;96734;-86
2021/07/25 08:27:07;;;;;;;9.90;8.75;;;;;;;24.72;52.49;99809.72;4915312;28;97193;-85
2021/07/25 08:29:33;;;;;;;13.25;9.18;;;;;;;24.76;52.57;99804.91;4914015;28;98425;-85
2021/07/25 08:31:59;;;;;;;11.27;9.10;;;;;;;24.94;52.13;99807.53;4931153;28;98379;-85
2021/07/25 08:34:25;;;;;;;10.82;9.40;;;;;;;24.93;51.55;99812.06;4918456;28;97783;-85
2021/07/25 08:36:51;;;;;;;9.18;8.20;;;;;;;24.83;52.25;99816.69;4893865;28;96850;-85
2021/07/25 08:39:16;;;;;;;11.52;9.35;;;;;;;24.85;52.13;99817.38;4910095;28;97463;-86
2021/07/25 08:41:58;;;;;;;13.50;8.68;;;;;;;24.98;51.58;99819.63;4895047;28;98381;-85
2021/07/25 08:44:46;;;;;;;16.08;7.90;;;;;;;24.93;51.49;99819.25;4894981;28;96743;-85
2021/07/25 08:47:26;;;;;;;13.93;8.80;;;;;;;24.97;51.31;99826.00;4895091;28;96824;-86
2021/07/25 08:50:13;;;;;;;12.55;8.38;;;;;;;24.93;51.61;99825.50;4912753;28;97501;-86
2021/07/25 08:52:45;;;;;;;9.73;8.52;;;;;;;24.90;51.83;99833.00;4911333;28;101526;-86
2021/07/25 08:55:16;;;;;;;12.82;8.60;;;;;;;24.90;51.47;99836.53;4911206;28;96621;-85
2021/07/25 08:57:42;;;;;;;;;;;;;;;24.95;50.14;99839.56;4896208;28;96666;-85
2021/07/25 09:00:11;;;;;;;8.43;7.50;;;;;;;24.82;50.62;99833.78;4911196;28;98420;-85
2021/07/25 09:02:37;;;;;;;14.05;8.52;;;;;;;24.85;50.62;99833.47;4897196;28;98967;-85
2021/07/25 09:05:03;;;;;;;11.18;7.13;;;;;;;24.91;50.78;99843.59;4933552;28;96701;-86
2021/07/25 09:07:30;;;;;;;13.85;7.82;;;;;;;24.83;50.37;99848.88;4933095;28;96869;-88
2021/07/25 09:10:00;;;;;;;13.85;7.32;;;;;;;24.80;50.24;99854.56;4933335;28;100129;-85
2021/07/25 09:12:26;;;;;;;12.20;7.18;;;;;;;24.74;50.39;99850.66;4932818;28;101276;-86
2021/07/25 09:14:58;;;;;;;9.77;6.82;;;;;;;24.61;49.92;99850.22;4933734;28;96802;-85
2021/07/25 09:17:24;;;;;;;13.30;8.05;;;;;;;24.57;50.24;99851.50;4916745;28;96794;-86
2021/07/25 09:20:17;;;;;;;15.05;7.43;;;;;;;24.56;50.60;99857.88;4923017;28;101110;-86
2021/07/25 09:22:49;;;;;;;8.60;7.35;;;;;;;24.53;50.76;99859.03;4933479;28;98556;-86
2021/07/25 09:25:21;;;;;;;11.13;7.00;;;;;;;24.39;52.29;99860.38;4932706;28;96808;-87
2021/07/25 09:28:06;;;;;;;12.93;7.43;;;;;;;24.32;53.33;99866.50;4929595;28;96898;-86
2021/07/25 09:30:33;;;;;;;9.60;7.43;;;;;;;24.28;54.51;99854.38;4898820;28;101149;-85
2021/07/25 09:32:59;;;;;;;12.38;7.50;;;;;;;24.22;55.26;99852.31;4932922;28;98383;-86
2021/07/25 09:35:25;;;;;;;8.32;7.22;;;;;;;24.33;54.55;99855.59;4900201;28;96762;-85
2021/07/25 09:37:55;;;;;;;10.05;7.88;;;;;;;24.32;55.58;99859.28;4933559;28;96702;-86
2021/07/25 09:40:25;;;;;;;9.00;7.95;;;;;;;24.44;55.11;99854.59;4915839;28;101354;-85
2021/07/25 09:43:13;;;;;;;12.65;7.65;;;;;;;24.33;55.43;99854.78;4932527;28;98063;-85
2021/07/25 09:45:54;;;;;;;12.23;7.60;;;;;;;24.37;56.38;99851.63;4932327;28;96718;-86
2021/07/25 09:48:26;;;;;;;10.90;7.72;;;;;;;24.40;56.06;99850.47;4932016;28;97613;-86
2021/07/25 09:50:55;;;;;;;9.13;7.38;;;;;;;24.43;56.36;99855.56;4932849;28;98395;-85
2021/07/25 09:53:21;;;;;;;8.38;7.55;;;;;;;24.40;56.92;99853.16;4916385;28;98298;-86
2021/07/25 09:55:47;;;;;;;10.07;7.45;;;;;;;24.34;56.65;99854.59;4933748;28;96582;-87
2021/07/25 09:58:13;;;;;;;12.25;7.70;;;;;;;24.33;56.43;99852.94;4916772;28;96905;-86
2021/07/25 10:00:43;;;;;;;12.48;7.75;;;;;;;24.27;56.50;99852.69;4931894;28;100606;-88
2021/07/25 10:03:18;;;;;;;9.52;8.25;;;;;;;24.32;57.47;99853.09;4931636;28;101413;-86
2021/07/25 10:05:44;;;;;;;9.30;8.02;;;;;;;24.32;57.86;99855.78;4931834;28;96718;-87
2021/07/25 10:08:18;;;;;;;10.70;7.93;;;;;;;24.38;57.17;99855.16;4916631;28;96823;-87
2021/07/25 10:10:45;;;;;;;9.30;8.23;;;;;;;24.45;57.17;99864.31;4932018;28;100587;-86
2021/07/25 10:13:14;;;;;;;11.15;8.68;;;;;;;24.52;56.66;99861.84;4932478;28;98096;-86
2021/07/25 10:15:41;;;;;;;8.90;8.00;;;;;;;24.45;56.36;99861.63;4931321;28;96619;-87
2021/07/25 10:18:07;;;;;;;12.77;7.85;;;;;;;24.43;56.72;99855.56;4932254;28;97271;-87
2021/07/25 10:20:32;;;;;;;12.00;8.52;;;;;;;24.48;56.77;99863.16;4932112;28;100567;-87
2021/07/25 10:23:00;;;;;;;12.20;8.65;;;;;;;24.51;57.07;99855.66;4932820;28;98297;-86
2021/07/25 10:25:28;;;;;;;11.13;8.38;;;;;;;24.54;56.70;99854.50;4916160;28;96610;-87
2021/07/25 10:27:57;;;;;;;8.90;8.02;;;;;;;24.67;56.54;99852.28;4901264;28;97040;-87
2021/07/25 10:30:23;;;;;;;12.93;7.97;;;;;;;24.71;57.16;99859.03;4918697;28;101062;-86
2021/07/25 10:32:49;;;;;;;12.05;8.35;;;;;;;24.89;57.19;99856.31;4933549;28;101150;-86
2021/07/25 10:35:17;;;;;;;10.73;8.63;;;;;;;24.89;58.04;99856.31;4933233;28;96898;-86
2021/07/25 10:37:44;;;;;;;9.20;8.10;;;;;;;25.01;58.12;99851.53;4933413;28;97267;-86
2021/07/25 10:40:12;;;;;;;13.80;9.00;;;;;;;25.06;58.75;99847.38;4917853;28;101448;-86
2021/07/25 10:42:56;;;;;;;12.45;8.80;;;;;;;25.05;60.28;99856.44;4915624;28;101259;-87
2021/07/25 10:45:21;;;;;;;12.57;9.80;;;;;;;25.07;60.18;99845.53;4916093;28;96692;-87
2021/07/25 10:47:47;;;;;;;11.73;8.77;;;;;;;25.03;59.49;99847.69;4916176;28;96876;-86
2021/07/25 10:50:20;;;;;;;15.90;9.35;;;;;;;24.99;59.43;99848.19;4932463;28;98468;-87
2021/07/25 10:53:02;;;;;;;12.02;9.65;;;;;;;25.04;59.48;99848.53;4948765;28;98114;-86
2021/07/25 10:55:42;;;;;;;10.80;8.90;;;;;;;25.08;59.08;99848.06;4931834;28;96560;-86
2021/07/25 10:58:09;;;;;;;12.75;9.52;;;;;;;25.03;59.33;99845.00;4933851;28;96563;-86
2021/07/25 11:00:41;;;;;;;12.13;8.90;;;;;;;25.14;58.89;99840.44;4915119;28;100181;-86
2021/07/25 11:03:07;;;;;;;11.88;8.73;;;;;;;25.13;59.16;99839.53;4931851;28;101256;-87
2021/07/25 11:05:33;;;;;;;10.80;9.48;;;;;;;25.14;59.71;99838.59;4931403;28;96712;-87
2021/07/25 11:08:00;;;;;;;10.80;9.25;;;;;;;25.21;59.39;99841.47;4915233;28;97263;-87
2021/07/25 11:10:33;;;;;;;10.05;8.68;;;;;;;25.11;59.39;99838.03;4915581;28;98725;-87
2021/07/25 11:12:59;;;;;;;9.57;8.65;;;;;;;25.17;59.14;99840.94;4931887;28;101210;-87
2021/07/25 11:15:28;;;;;;;10.27;8.52;;;;;;;25.12;58.73;99834.34;4931326;28;96594;-87
2021/07/25 11:17:54;;;;;;;11.25;8.57;;;;;;;25.12;58.97;99837.03;4932161;28;96886;-87
2021/07/25 11:20:39;;;;;;;13.68;9.63;;;;;;;25.06;58.87;99833.13;4931741;28;101529;-86
2021/07/25 11:23:35;;;;;;;11.50;9.55;;;;;;;25.09;59.42;99832.81;4932024;28;98060;-87